Kihei, Hawaii
Current Conditions -  °F | °C
As of 1:54 AM on Wednesday 22 Oct 2014 (Local Time) from PHOG Reporting Station
Scattered Clouds Scattered Clouds  
Wind Chill: 74°   Ceiling: Unl
Heat Index: 74°   Visibility: 10mi
Dew Point: 70°   Wind: 6mph
Humidity: 87%   Direction: 150°SSE
Pressure: 29.98"   Gusts: NA
Location:  20.78°N, 156.46°W
Report Text: PHOG 221154Z AUTO 15005KT 10SM SCT060 23/21 A2998 RMK AO2 SLP157 T02330211 10267 20228 58008 TSNO
Loading
Personal Weather Stations






























Interactive Weather Map
Tropical Storm Tracking
New forecast layout! Learn more

10-Day Weather Forecast

Advertisements
Track Severe Weather on mobile